createdAt,value
2019-03-21T00:00:55.224Z,64.43
2019-03-21T00:03:25.425Z,69.70
2019-03-21T00:05:55.653Z,61.55
2019-03-21T00:08:25.862Z,66.97
2019-03-21T00:11:38.389Z,78.77
2019-03-21T00:14:35.261Z,62.53
2019-03-21T00:17:06.107Z,72.23
2019-03-21T00:19:37.405Z,65.50
2019-03-21T00:22:07.625Z,66.22
2019-03-21T00:24:38.125Z,77.30
2019-03-21T00:27:08.405Z,66.42
2019-03-21T00:29:38.618Z,69.63
2019-03-21T00:32:08.994Z,65.40
2019-03-21T00:34:39.202Z,62.80
2019-03-21T00:37:09.610Z,58.17
2019-03-21T00:39:39.821Z,57.03
2019-03-21T00:42:10.037Z,52.87
2019-03-21T00:44:40.317Z,61.73
2019-03-21T00:47:10.533Z,63.03
2019-03-21T00:49:40.753Z,64.20
2019-03-21T00:52:10.994Z,58.57
2019-03-21T00:54:41.201Z,50.13
2019-03-21T00:57:11.429Z,64.30
2019-03-21T00:59:41.733Z,62.10
2019-03-21T01:02:12.126Z,65.23
2019-03-21T01:04:42.411Z,60.87
2019-03-21T01:07:12.707Z,54.93
2019-03-21T01:09:42.920Z,56.30
2019-03-21T01:12:13.185Z,62.67
2019-03-21T01:14:43.397Z,55.47
2019-03-21T01:17:13.617Z,72.72
2019-03-21T01:19:43.824Z,69.00
2019-03-21T01:22:14.047Z,68.73
2019-03-21T01:24:44.254Z,68.47
2019-03-21T01:27:14.479Z,60.83
2019-03-21T01:29:44.683Z,65.63
2019-03-21T01:32:14.901Z,60.63
2019-03-21T01:34:45.126Z,57.77
2019-03-21T01:37:15.325Z,72.53
2019-03-21T01:39:45.789Z,60.23
2019-03-21T01:42:16.022Z,66.67
2019-03-21T01:44:46.236Z,59.23
2019-03-21T01:47:16.457Z,53.65
2019-03-21T01:49:47.654Z,57.10
2019-03-21T01:52:17.905Z,63.13
2019-03-21T01:54:48.064Z,62.30
2019-03-21T01:57:18.275Z,57.95
2019-03-21T01:59:48.489Z,59.83
2019-03-21T02:02:18.934Z,54.57
2019-03-21T02:04:49.162Z,58.20
2019-03-21T02:07:19.354Z,65.03
2019-03-21T02:09:49.818Z,57.87
2019-03-21T02:12:20.033Z,55.73
2019-03-21T02:14:52.338Z,54.60
2019-03-21T02:17:22.342Z,56.50
2019-03-21T02:19:52.542Z,57.10
2019-03-21T02:22:22.786Z,56.93
2019-03-21T02:24:52.974Z,53.63
2019-03-21T02:27:23.193Z,53.80
2019-03-21T02:29:53.392Z,58.63
2019-03-21T02:32:23.604Z,55.57
2019-03-21T02:34:53.854Z,59.47
2019-03-21T02:37:24.303Z,52.03
2019-03-21T02:39:59.763Z,69.67
2019-03-21T02:42:26.696Z,57.43
2019-03-21T02:45:08.382Z,58.20
2019-03-21T02:47:28.901Z,60.47
2019-03-21T02:49:59.124Z,52.67
2019-03-21T02:52:29.341Z,53.00
2019-03-21T02:54:59.561Z,59.93
2019-03-21T02:57:29.788Z,57.10
2019-03-21T03:00:00.478Z,62.87
2019-03-21T03:02:30.637Z,57.53
2019-03-21T03:05:01.002Z,54.93
2019-03-21T03:07:31.367Z,54.37
2019-03-21T03:10:01.620Z,56.20
2019-03-21T03:12:31.808Z,57.40
2019-03-21T03:15:02.068Z,57.70
2019-03-21T03:17:32.262Z,57.53
2019-03-21T03:20:02.474Z,54.63
2019-03-21T03:22:32.675Z,55.40
2019-03-21T03:25:03.195Z,53.57
2019-03-21T03:27:33.634Z,53.90
2019-03-21T03:30:03.998Z,60.40
2019-03-21T03:32:34.257Z,54.87
2019-03-21T03:35:04.844Z,52.78
2019-03-21T03:37:35.047Z,54.17
2019-03-21T03:40:06.854Z,57.07
2019-03-21T03:42:37.050Z,58.50
2019-03-21T03:45:10.158Z,56.03
2019-03-21T03:47:40.375Z,65.97
2019-03-21T03:50:11.021Z,58.00
2019-03-21T03:52:41.194Z,58.43
2019-03-21T03:55:12.258Z,57.70
2019-03-21T03:57:42.612Z,48.63
2019-03-21T04:00:15.442Z,48.73
2019-03-21T04:02:46.754Z,59.10
2019-03-21T04:05:17.144Z,51.92
2019-03-21T04:07:48.514Z,52.83
2019-03-21T04:10:30.332Z,56.83
2019-03-21T04:13:00.666Z,57.40
2019-03-21T04:15:30.871Z,61.30
2019-03-21T04:18:01.077Z,61.53
2019-03-21T04:20:32.455Z,54.23
2019-03-21T04:23:03.051Z,56.80
2019-03-21T04:25:39.521Z,61.37
2019-03-21T04:28:13.429Z,59.73
2019-03-21T04:30:44.500Z,48.90
2019-03-21T04:33:14.858Z,56.37
2019-03-21T04:35:45.454Z,50.73
2019-03-21T04:38:15.722Z,52.15
2019-03-21T04:40:45.917Z,51.40
2019-03-21T04:43:16.193Z,54.30
2019-03-21T04:45:46.495Z,53.57
2019-03-21T04:48:16.711Z,51.37
2019-03-21T04:50:46.915Z,49.47
2019-03-21T04:53:17.111Z,54.13
2019-03-21T04:55:47.474Z,55.03
2019-03-21T04:58:17.713Z,55.08
2019-03-21T05:00:50.518Z,53.57
2019-03-21T05:03:20.894Z,59.93
2019-03-21T05:05:51.095Z,54.53
2019-03-21T05:08:21.557Z,56.63
2019-03-21T05:10:51.779Z,59.53
2019-03-21T05:13:21.978Z,59.27
2019-03-21T05:15:52.208Z,56.53
2019-03-21T05:18:26.993Z,55.20
2019-03-21T05:20:57.499Z,58.20
2019-03-21T05:23:27.698Z,58.90
2019-03-21T05:25:57.933Z,55.47
2019-03-21T05:28:28.162Z,55.37
2019-03-21T05:31:04.080Z,52.00
2019-03-21T05:33:34.279Z,56.10
2019-03-21T05:36:05.539Z,63.08
2019-03-21T05:38:35.753Z,56.77
2019-03-21T05:41:05.972Z,59.90
2019-03-21T05:43:40.073Z,70.27
2019-03-21T05:46:11.234Z,61.20
2019-03-21T05:48:41.451Z,62.40
2019-03-21T05:51:11.666Z,59.93
2019-03-21T05:53:41.876Z,61.47
2019-03-21T05:56:12.108Z,62.70
2019-03-21T05:58:42.314Z,59.87
2019-03-21T06:01:13.786Z,59.07
2019-03-21T06:03:50.983Z,72.03
2019-03-21T06:06:28.317Z,64.45
2019-03-21T06:08:58.523Z,72.37
2019-03-21T06:11:28.825Z,59.10
2019-03-21T06:13:59.046Z,60.87
2019-03-21T06:16:37.317Z,65.37
2019-03-21T06:19:23.214Z,59.10
2019-03-21T06:22:18.354Z,64.50
2019-03-21T06:25:05.276Z,63.07
2019-03-21T06:27:35.463Z,66.97
2019-03-21T06:30:07.786Z,68.00
2019-03-21T06:32:38.058Z,68.43
2019-03-21T06:35:21.479Z,62.37
2019-03-21T06:37:52.046Z,73.63
2019-03-21T06:40:22.425Z,73.80
2019-03-21T06:42:52.646Z,64.10
2019-03-21T06:45:22.864Z,68.53
2019-03-21T06:47:53.386Z,68.17
2019-03-21T06:50:23.725Z,66.72
2019-03-21T06:52:54.197Z,68.77
2019-03-21T06:55:24.402Z,59.23
2019-03-21T06:57:54.625Z,69.37
2019-03-21T07:00:25.806Z,60.60
2019-03-21T07:02:56.098Z,63.87
2019-03-21T07:05:26.858Z,65.43
2019-03-21T07:07:57.097Z,58.80
2019-03-21T07:10:27.290Z,62.33
2019-03-21T07:12:57.515Z,63.80
2019-03-21T07:15:27.725Z,64.23
2019-03-21T07:17:57.930Z,61.30
2019-03-21T07:20:28.137Z,60.00
2019-03-21T07:22:58.620Z,61.03
2019-03-21T07:25:28.886Z,59.07
2019-03-21T07:27:59.094Z,68.73
2019-03-21T07:30:29.296Z,61.20
2019-03-21T07:32:59.517Z,57.13
2019-03-21T07:35:29.725Z,60.73
2019-03-21T07:37:59.939Z,60.27
2019-03-21T07:40:30.149Z,62.47
2019-03-21T07:43:01.322Z,55.33
2019-03-21T07:45:31.766Z,64.87
2019-03-21T07:48:01.978Z,61.03
2019-03-21T07:50:32.213Z,56.90
2019-03-21T07:53:02.412Z,58.87
2019-03-21T07:55:32.619Z,60.23
2019-03-21T07:58:02.825Z,55.13
2019-03-21T08:00:33.124Z,59.73
2019-03-21T08:03:03.356Z,60.30
2019-03-21T08:05:40.431Z,57.58
2019-03-21T08:08:06.550Z,56.83
2019-03-21T08:10:37.049Z,57.37
2019-03-21T08:13:07.268Z,54.87
2019-03-21T08:15:38.056Z,58.63
2019-03-21T08:18:08.328Z,56.60
2019-03-21T08:20:38.799Z,55.53
2019-03-21T08:23:09.089Z,51.30
2019-03-21T08:25:39.299Z,54.30
2019-03-21T08:28:10.238Z,52.57
2019-03-21T08:31:11.970Z,52.07
2019-03-21T08:33:42.184Z,51.43
2019-03-21T08:36:12.467Z,51.90
2019-03-21T08:38:43.051Z,57.17
2019-03-21T08:41:13.407Z,53.70
2019-03-21T08:43:43.690Z,54.03
2019-03-21T08:46:13.982Z,54.42
2019-03-21T08:48:44.166Z,50.63
2019-03-21T08:51:14.373Z,56.23
2019-03-21T08:53:44.571Z,57.23
2019-03-21T08:56:14.821Z,55.80
2019-03-21T08:58:45.058Z,53.70
2019-03-21T09:01:15.256Z,57.77
2019-03-21T09:03:46.434Z,56.33
2019-03-21T09:06:16.775Z,51.90
2019-03-21T09:08:46.995Z,54.57
2019-03-21T09:11:17.182Z,54.77
2019-03-21T09:13:47.397Z,50.97
2019-03-21T09:16:17.696Z,52.33
2019-03-21T09:18:47.893Z,56.47
2019-03-21T09:21:20.008Z,48.13
2019-03-21T09:23:50.031Z,55.53
2019-03-21T09:26:20.238Z,51.43
2019-03-21T09:28:50.534Z,60.70
2019-03-21T09:31:20.745Z,59.57
2019-03-21T09:33:50.945Z,58.10
2019-03-21T09:36:21.166Z,54.70
2019-03-21T09:38:51.391Z,58.10
2019-03-21T09:41:21.578Z,55.07
2019-03-21T09:43:51.791Z,58.73
2019-03-21T09:46:22.175Z,56.07
2019-03-21T09:48:52.381Z,59.83
2019-03-21T09:51:30.460Z,54.13
2019-03-21T09:53:55.870Z,56.37
2019-03-21T09:56:26.091Z,49.97
2019-03-21T09:58:56.565Z,50.97
2019-03-21T10:01:26.915Z,52.67
2019-03-21T10:03:57.105Z,48.87
2019-03-21T10:06:27.674Z,48.80
2019-03-21T10:08:57.886Z,52.73
2019-03-21T10:11:28.108Z,44.07
2019-03-21T10:13:58.325Z,48.90
2019-03-21T10:16:28.517Z,50.30
2019-03-21T10:18:58.727Z,46.33
2019-03-21T10:21:29.210Z,45.27
2019-03-21T10:23:59.402Z,39.30
2019-03-21T10:26:29.690Z,37.67
2019-03-21T10:29:00.132Z,41.27
2019-03-21T10:31:31.471Z,40.03
2019-03-21T10:34:01.686Z,41.03
2019-03-21T10:36:32.135Z,40.53
2019-03-21T10:39:02.700Z,42.13
2019-03-21T10:41:32.903Z,46.90
2019-03-21T10:44:03.140Z,46.50
2019-03-21T10:46:34.311Z,43.60
2019-03-21T10:49:05.627Z,39.27
2019-03-21T10:51:35.845Z,37.50
2019-03-21T10:54:06.840Z,37.57
2019-03-21T10:56:37.062Z,30.87
2019-03-21T10:59:07.271Z,32.73
2019-03-21T11:01:37.476Z,32.60
2019-03-21T11:04:07.679Z,27.00
2019-03-21T11:06:38.134Z,29.03
2019-03-21T11:09:10.046Z,27.30
2019-03-21T11:11:40.277Z,26.40
2019-03-21T11:14:10.510Z,33.13
2019-03-21T11:16:40.715Z,27.93
2019-03-21T11:19:11.010Z,23.03
2019-03-21T11:21:41.242Z,25.00
2019-03-21T11:24:11.456Z,23.07
2019-03-21T11:26:41.679Z,22.97
2019-03-21T11:29:11.894Z,19.40
2019-03-21T11:31:42.130Z,20.30
2019-03-21T11:34:12.357Z,21.12
2019-03-21T11:36:42.612Z,23.57
2019-03-21T11:39:12.960Z,20.93
2019-03-21T11:41:43.125Z,20.63
2019-03-21T11:44:13.351Z,21.73
2019-03-21T11:46:43.571Z,24.17
2019-03-21T11:49:13.805Z,22.62
2019-03-21T11:51:44.319Z,24.07
2019-03-21T11:54:14.530Z,24.00
2019-03-21T11:56:44.738Z,25.67
2019-03-21T11:59:15.128Z,26.17
2019-03-21T12:01:45.400Z,27.87
2019-03-21T12:04:15.637Z,24.15
2019-03-21T12:06:46.796Z,26.60
2019-03-21T12:09:17.002Z,24.57
2019-03-21T12:11:47.209Z,24.20
2019-03-21T12:14:17.419Z,24.82
2019-03-21T12:16:47.643Z,25.03
2019-03-21T12:19:17.870Z,22.63
2019-03-21T12:21:48.082Z,23.77
2019-03-21T12:24:18.487Z,25.47
2019-03-21T12:26:48.696Z,24.07
2019-03-21T12:29:18.921Z,24.60
2019-03-21T12:31:49.134Z,27.93
2019-03-21T12:34:19.363Z,29.48
2019-03-21T12:36:49.845Z,24.87
2019-03-21T12:39:20.322Z,24.80
2019-03-21T12:41:50.542Z,22.60
2019-03-21T12:44:20.766Z,24.25
2019-03-21T12:46:50.970Z,24.90
2019-03-21T12:49:24.289Z,25.37
2019-03-21T12:51:54.493Z,26.30
2019-03-21T12:54:24.704Z,24.20
2019-03-21T12:56:54.919Z,24.27
2019-03-21T12:59:25.126Z,24.23
2019-03-21T13:01:55.349Z,25.33
2019-03-21T13:04:25.751Z,24.33
2019-03-21T13:06:55.971Z,22.70
2019-03-21T13:09:26.179Z,23.53
2019-03-21T13:11:56.402Z,23.42
2019-03-21T13:14:27.596Z,22.43
2019-03-21T13:16:57.959Z,20.73
2019-03-21T13:19:28.176Z,22.70
2019-03-21T13:21:58.479Z,21.10
2019-03-21T13:24:28.701Z,23.73
2019-03-21T13:27:00.278Z,19.50
2019-03-21T13:29:30.638Z,19.67
2019-03-21T13:32:00.858Z,22.40
2019-03-21T13:34:32.284Z,21.90
2019-03-21T13:37:02.504Z,21.43
2019-03-21T13:39:33.855Z,20.00
2019-03-21T13:42:04.148Z,19.20
2019-03-21T13:44:34.380Z,22.07
2019-03-21T13:47:05.491Z,24.15
2019-03-21T13:49:35.733Z,21.43
2019-03-21T13:52:05.939Z,22.90
2019-03-21T13:54:37.776Z,22.97
2019-03-21T13:57:07.975Z,22.20
2019-03-21T13:59:38.268Z,20.70
2019-03-21T14:02:09.438Z,21.37
2019-03-21T14:04:39.698Z,23.57
2019-03-21T14:07:09.918Z,21.93
2019-03-21T14:09:40.130Z,20.40
2019-03-21T14:12:10.346Z,19.80
2019-03-21T14:14:40.576Z,21.53
2019-03-21T14:17:21.347Z,21.93
2019-03-21T14:19:42.690Z,23.10
2019-03-21T14:22:12.928Z,21.33
2019-03-21T14:24:43.121Z,20.50
2019-03-21T14:27:13.345Z,22.43
2019-03-21T14:29:43.550Z,21.47
2019-03-21T14:32:14.042Z,22.80
2019-03-21T14:34:44.258Z,23.23
2019-03-21T14:37:14.633Z,24.30
2019-03-21T14:39:44.830Z,24.17
2019-03-21T14:42:15.049Z,24.63
2019-03-21T14:44:45.253Z,23.77
2019-03-21T14:47:15.515Z,24.07
2019-03-21T14:49:45.710Z,23.87
2019-03-21T14:52:15.926Z,24.23
2019-03-21T14:54:46.421Z,23.07
2019-03-21T14:57:16.651Z,22.93
2019-03-21T14:59:46.864Z,19.73
2019-03-21T15:02:17.088Z,23.37
2019-03-21T15:04:47.322Z,25.33
2019-03-21T15:07:18.730Z,27.63
2019-03-21T15:09:49.026Z,23.03
2019-03-21T15:12:19.231Z,21.03
2019-03-21T15:14:49.444Z,22.53
2019-03-21T15:17:19.639Z,22.17
2019-03-21T15:19:49.859Z,21.80
2019-03-21T15:22:20.074Z,20.43
2019-03-21T15:24:50.292Z,21.53
2019-03-21T15:27:20.783Z,20.87
2019-03-21T15:29:51.836Z,20.77
2019-03-21T15:32:22.008Z,20.33
2019-03-21T15:34:52.221Z,19.90
2019-03-21T15:37:22.456Z,20.20
2019-03-21T15:39:52.676Z,19.03
2019-03-21T15:42:22.910Z,22.63
2019-03-21T15:44:53.143Z,23.13
2019-03-21T15:47:23.357Z,27.30
2019-03-21T15:49:53.596Z,22.10
2019-03-21T15:52:23.831Z,23.87
2019-03-21T15:54:54.371Z,21.40
2019-03-21T15:57:24.581Z,28.33
2019-03-21T15:59:54.832Z,25.03
2019-03-21T16:02:25.039Z,26.87
2019-03-21T16:04:55.291Z,23.97
2019-03-21T16:07:25.531Z,25.77
2019-03-21T16:09:55.742Z,24.27
2019-03-21T16:12:26.059Z,27.30
2019-03-21T16:14:56.263Z,28.83
2019-03-21T16:17:26.483Z,25.33
2019-03-21T16:19:56.694Z,33.13
2019-03-21T16:22:26.914Z,30.00
2019-03-21T16:24:57.110Z,27.30
2019-03-21T16:27:27.332Z,32.20
2019-03-21T16:29:57.542Z,34.77
2019-03-21T16:32:27.770Z,27.37
2019-03-21T16:34:57.976Z,30.20
2019-03-21T16:37:28.338Z,29.20
2019-03-21T16:39:58.610Z,30.47
2019-03-21T16:42:29.038Z,28.80
2019-03-21T16:44:59.235Z,27.03
2019-03-21T16:47:29.455Z,30.90
2019-03-21T16:49:59.655Z,29.80
2019-03-21T16:52:30.149Z,30.33
2019-03-21T16:55:00.458Z,33.63
2019-03-21T16:57:30.714Z,27.17
2019-03-21T17:00:00.932Z,33.00
2019-03-21T17:02:31.329Z,30.40
2019-03-21T17:05:01.568Z,30.68
2019-03-21T17:07:31.790Z,34.43
2019-03-21T17:10:01.997Z,31.87
2019-03-21T17:12:32.244Z,33.57
2019-03-21T17:15:02.473Z,36.53
2019-03-21T17:17:32.697Z,34.55
2019-03-21T17:20:03.881Z,29.33
2019-03-21T17:22:34.137Z,34.50
2019-03-21T17:25:06.193Z,33.15
2019-03-21T17:27:36.403Z,31.30
2019-03-21T17:30:07.819Z,32.43
2019-03-21T17:32:38.192Z,32.03
2019-03-21T17:35:08.486Z,35.73
2019-03-21T17:37:38.772Z,32.40
2019-03-21T17:40:09.882Z,30.67
2019-03-21T17:42:40.198Z,32.03
2019-03-21T17:45:12.644Z,34.23
2019-03-21T17:47:42.936Z,29.30
2019-03-21T17:50:13.966Z,30.17
2019-03-21T17:52:44.172Z,31.60
2019-03-21T17:55:14.649Z,30.50
2019-03-21T17:57:45.136Z,30.63
2019-03-21T18:00:16.679Z,34.70
2019-03-21T18:02:48.621Z,33.77
2019-03-21T18:05:18.975Z,37.43
2019-03-21T18:07:49.365Z,34.03
2019-03-21T18:10:27.478Z,33.17
2019-03-21T18:12:57.766Z,34.10
2019-03-21T18:15:28.126Z,35.10
2019-03-21T18:17:58.490Z,34.60
2019-03-21T18:20:29.077Z,34.00
2019-03-21T18:23:00.266Z,33.97
2019-03-21T18:25:30.491Z,36.67
2019-03-21T18:28:00.778Z,48.60
2019-03-21T18:30:31.067Z,50.53
2019-03-21T18:33:01.294Z,48.50
2019-03-21T18:35:31.504Z,50.20
2019-03-21T18:38:02.697Z,46.70
2019-03-21T18:40:32.895Z,44.97
2019-03-21T18:43:03.202Z,46.73
2019-03-21T18:45:33.402Z,45.13
2019-03-21T18:48:03.807Z,48.17
2019-03-21T18:50:34.084Z,47.93
2019-03-21T18:53:04.300Z,44.10
2019-03-21T18:55:34.514Z,46.43
2019-03-21T18:58:05.730Z,47.88
2019-03-21T19:00:35.955Z,42.60
2019-03-21T19:03:06.254Z,43.50
2019-03-21T19:05:36.510Z,40.63
2019-03-21T19:08:06.743Z,46.20
2019-03-21T19:10:37.107Z,51.03
2019-03-21T19:13:07.282Z,50.40
2019-03-21T19:15:37.562Z,46.77
2019-03-21T19:18:07.709Z,47.43
2019-03-21T19:20:38.157Z,55.00
2019-03-21T19:23:08.393Z,53.30
2019-03-21T19:25:38.605Z,53.03
2019-03-21T19:28:08.834Z,48.50
2019-03-21T19:30:39.052Z,51.13
2019-03-21T19:33:09.264Z,49.17
2019-03-21T19:35:39.488Z,53.83
2019-03-21T19:38:09.889Z,49.08
2019-03-21T19:40:40.089Z,49.20
2019-03-21T19:43:10.305Z,49.27
2019-03-21T19:45:40.514Z,48.23
2019-03-21T19:48:10.769Z,49.65
2019-03-21T19:50:41.022Z,49.00
2019-03-21T19:53:11.249Z,46.90
2019-03-21T19:55:41.462Z,52.37
2019-03-21T19:58:11.670Z,47.05
2019-03-21T20:00:42.111Z,54.27
2019-03-21T20:03:12.436Z,46.77
2019-03-21T20:05:42.781Z,52.03
2019-03-21T20:08:13.001Z,41.85
2019-03-21T20:10:43.198Z,55.30
2019-03-21T20:13:13.479Z,51.23
2019-03-21T20:15:43.763Z,42.00
2019-03-21T20:18:13.984Z,52.47
2019-03-21T20:20:44.195Z,49.30
2019-03-21T20:23:14.633Z,51.30
2019-03-21T20:25:44.910Z,52.83
2019-03-21T20:28:15.141Z,52.60
2019-03-21T20:30:45.337Z,60.53
2019-03-21T20:33:15.568Z,52.88
2019-03-21T20:35:45.848Z,57.97
2019-03-21T20:38:16.309Z,52.93
2019-03-21T20:40:46.794Z,54.77
2019-03-21T20:43:16.994Z,57.73
2019-03-21T20:45:47.369Z,62.05
2019-03-21T20:48:16.883Z,62.20
2019-03-21T20:50:47.103Z,62.20
2019-03-21T20:53:19.734Z,56.37
2019-03-21T20:55:53.634Z,59.63
2019-03-21T20:58:21.979Z,61.73
2019-03-21T21:00:52.525Z,57.57
2019-03-21T21:03:22.833Z,62.37
2019-03-21T21:05:53.055Z,62.70
2019-03-21T21:08:23.258Z,60.33
2019-03-21T21:10:53.545Z,67.17
2019-03-21T21:13:23.770Z,64.23
2019-03-21T21:15:54.030Z,72.03
2019-03-21T21:18:24.398Z,77.23
2019-03-21T21:20:54.623Z,81.23
2019-03-21T21:23:24.822Z,76.00
2019-03-21T21:26:05.057Z,81.57
2019-03-21T21:28:26.958Z,65.20
2019-03-21T21:30:57.174Z,67.30
2019-03-21T21:33:27.391Z,65.03
2019-03-21T21:35:57.605Z,74.57
2019-03-21T21:38:27.811Z,79.43
2019-03-21T21:40:58.024Z,77.30
2019-03-21T21:43:28.261Z,84.20
2019-03-21T21:45:58.463Z,78.67
2019-03-21T21:48:28.722Z,82.43
2019-03-21T21:50:58.921Z,89.90
2019-03-21T21:53:29.139Z,79.13
2019-03-21T21:55:59.350Z,90.10
2019-03-21T21:58:29.643Z,90.03
2019-03-21T22:00:59.855Z,99.30
2019-03-21T22:03:30.089Z,94.37
2019-03-21T22:06:00.304Z,89.35
2019-03-21T22:08:30.758Z,96.20
2019-03-21T22:11:01.243Z,81.47
2019-03-21T22:13:31.538Z,88.10
2019-03-21T22:16:01.758Z,87.00
2019-03-21T22:18:32.216Z,88.57
2019-03-21T22:21:02.654Z,86.97
2019-03-21T22:23:33.122Z,85.73
2019-03-21T22:26:03.323Z,87.43
2019-03-21T22:28:33.746Z,86.23
2019-03-21T22:31:04.023Z,98.77
2019-03-21T22:33:34.258Z,90.93
2019-03-21T22:36:06.554Z,84.90
2019-03-21T22:38:36.619Z,95.65
2019-03-21T22:41:06.870Z,89.40
2019-03-21T22:43:37.362Z,96.27
2019-03-21T22:46:07.562Z,93.57
2019-03-21T22:48:37.781Z,84.10
2019-03-21T22:51:07.998Z,100.47
2019-03-21T22:53:38.210Z,88.93
2019-03-21T22:56:08.465Z,93.07
2019-03-21T22:58:38.675Z,87.80
2019-03-21T23:01:09.351Z,90.03
2019-03-21T23:03:39.573Z,83.73
2019-03-21T23:06:10.019Z,92.17
2019-03-21T23:08:40.249Z,99.37
2019-03-21T23:11:10.483Z,95.07
2019-03-21T23:13:40.694Z,96.17
2019-03-21T23:16:10.910Z,87.83
2019-03-21T23:18:41.133Z,96.00
2019-03-21T23:21:11.357Z,97.33
2019-03-21T23:23:41.557Z,97.23
2019-03-21T23:26:11.790Z,86.75
2019-03-21T23:28:41.991Z,105.23
2019-03-21T23:31:12.212Z,111.42
2019-03-21T23:33:42.514Z,101.10
2019-03-21T23:36:12.814Z,102.40
2019-03-21T23:38:43.015Z,109.63
2019-03-21T23:41:13.490Z,108.67
2019-03-21T23:43:43.833Z,96.83
2019-03-21T23:46:14.208Z,109.90
2019-03-21T23:48:44.429Z,101.53
2019-03-21T23:51:14.710Z,112.93
2019-03-21T23:53:44.949Z,106.23
2019-03-21T23:56:15.150Z,106.13
2019-03-21T23:58:45.519Z,111.00
